Samara (snysljaevka), Russia

3:11 PM MSK on December 04, 2016 (GMT +0300)
Izmailovsky lane, Samara | | Change Station

Elev 233 ft 53.19 °N, 50.22 °E | Updated 17 seconds ago

Mostly Cloudy
Mostly Cloudy
16.7 °F
Feels Like 17 °F
N
1.6
Wind Variable Wind from NNE
Gusts 6.9 mph

Today
High -- | Low -- °F
--% Chance of Precip.
Yesterday
High -- | Low -- °F
Precip. -- in
Pressure 29.89 in
Visibility 6.2 miles
Clouds Mostly Cloudy 1200 ft
Windchill 17 °F
Dew Point 4 °F
Humidity 56%
Rainfall 0.00 in
Snow Depth Not available.
7:34 AM 3:22 PM
Waxing Crescent, 22% visible
METAR UWWW 041200Z 33004MPS 300V360 9999 BKN012 M10/M12 Q1012 R23/450540 NOSIG RMK QFE748/0997
Pressure 29.89 in
Visibility 6.2 miles
Clouds Mostly Cloudy 1200 ft
Windchill 17 °F
Dew Point 4 °F
Humidity 56%
Rainfall 0.00 in
Snow Depth Not available.
7:34 AM 3:22 PM
Waxing Crescent, 22% visible
METAR UWWW 041200Z 33004MPS 300V360 9999 BKN012 M10/M12 Q1012 R23/450540 NOSIG RMK QFE748/0997

10-Day Weather Forecast

×

Almanac

Astronomy

Dec. 04, 2016 Rise Set
Actual Time
Civil Twilight
Nautical Twilight
Astronomical Twilight
Moon
Length of Visible Light
Length of Day
Tomorrow will be .
, % of the Moon is Illuminated

Today's Extremes

Country Highs Country Lows

Community

WunderPhotos

Upload Photos

1,955,591 photos uploaded!

WunderBlog® & News

Nearby

Air Quality

  Air Quality AQ Index Pollutant
Not available.

Snow Depth

Station Depth Elevation

Earthquake Activity

City Distance Mag. Time & Date
Minimum magnitude displayed is 2.5.

Coastal Water Temperatures

Place Temperature

Stations

Nearby Weather Stations

Station Location Temp. Windchill Dew Point Humidity Wind Precip. Elev Updated Type